sensor_id;sensor_type;location;lat;lon;timestamp;P1;durP1;ratioP1;P2;durP2;ratioP2
73023;SDS011;61199;47.526;8.538;2023-05-14T00:00:20;13.10;;;8.67;;
73023;SDS011;61199;47.526;8.538;2023-05-14T00:02:47;8.97;;;7.93;;
73023;SDS011;61199;47.526;8.538;2023-05-14T00:05:13;9.60;;;7.90;;
73023;SDS011;61199;47.526;8.538;2023-05-14T00:07:40;15.47;;;8.20;;
73023;SDS011;61199;47.526;8.538;2023-05-14T00:10:06;13.90;;;8.80;;
73023;SDS011;61199;47.526;8.538;2023-05-14T00:12:33;10.37;;;7.73;;
73023;SDS011;61199;47.526;8.538;2023-05-14T00:15:00;11.77;;;8.20;;
73023;SDS011;61199;47.526;8.538;2023-05-14T00:17:26;13.33;;;8.80;;
73023;SDS011;61199;47.526;8.538;2023-05-14T00:19:53;12.77;;;7.50;;
73023;SDS011;61199;47.526;8.538;2023-05-14T00:22:19;12.40;;;7.90;;
73023;SDS011;61199;47.526;8.538;2023-05-14T00:24:46;11.43;;;8.43;;
73023;SDS011;61199;47.526;8.538;2023-05-14T00:27:12;17.20;;;8.83;;
73023;SDS011;61199;47.526;8.538;2023-05-14T00:29:39;13.90;;;8.00;;
73023;SDS011;61199;47.526;8.538;2023-05-14T00:32:05;11.93;;;8.73;;
73023;SDS011;61199;47.526;8.538;2023-05-14T00:34:32;10.80;;;8.30;;
73023;SDS011;61199;47.526;8.538;2023-05-14T00:36:58;11.50;;;8.63;;
73023;SDS011;61199;47.526;8.538;2023-05-14T00:39:24;12.60;;;8.20;;
73023;SDS011;61199;47.526;8.538;2023-05-14T00:41:51;9.73;;;7.70;;
73023;SDS011;61199;47.526;8.538;2023-05-14T00:44:17;14.10;;;9.07;;
73023;SDS011;61199;47.526;8.538;2023-05-14T00:46:44;9.67;;;7.90;;
73023;SDS011;61199;47.526;8.538;2023-05-14T00:49:10;10.50;;;8.33;;
73023;SDS011;61199;47.526;8.538;2023-05-14T00:51:37;11.97;;;9.37;;
73023;SDS011;61199;47.526;8.538;2023-05-14T00:54:04;14.77;;;8.17;;
73023;SDS011;61199;47.526;8.538;2023-05-14T00:56:31;12.43;;;8.90;;
73023;SDS011;61199;47.526;8.538;2023-05-14T00:58:58;10.73;;;7.90;;
73023;SDS011;61199;47.526;8.538;2023-05-14T01:01:24;11.33;;;8.23;;
73023;SDS011;61199;47.526;8.538;2023-05-14T01:03:53;11.93;;;8.17;;
73023;SDS011;61199;47.526;8.538;2023-05-14T01:06:25;15.50;;;8.90;;
73023;SDS011;61199;47.526;8.538;2023-05-14T01:09:16;11.43;;;8.40;;
73023;SDS011;61199;47.526;8.538;2023-05-14T01:11:54;17.97;;;8.97;;
73023;SDS011;61199;47.526;8.538;2023-05-14T01:14:29;11.37;;;8.03;;
73023;SDS011;61199;47.526;8.538;2023-05-14T01:17:03;19.97;;;8.70;;
73023;SDS011;61199;47.526;8.538;2023-05-14T01:19:36;11.23;;;8.77;;
73023;SDS011;61199;47.526;8.538;2023-05-14T01:22:06;11.53;;;7.80;;
73023;SDS011;61199;47.526;8.538;2023-05-14T01:24:33;11.47;;;8.33;;
73023;SDS011;61199;47.526;8.538;2023-05-14T01:29:37;11.10;;;8.13;;
73023;SDS011;61199;47.526;8.538;2023-05-14T01:32:08;12.10;;;7.70;;
73023;SDS011;61199;47.526;8.538;2023-05-14T01:34:35;11.43;;;8.17;;
73023;SDS011;61199;47.526;8.538;2023-05-14T01:37:03;9.43;;;8.23;;
73023;SDS011;61199;47.526;8.538;2023-05-14T01:39:30;10.23;;;7.80;;
73023;SDS011;61199;47.526;8.538;2023-05-14T01:41:58;10.93;;;7.37;;
73023;SDS011;61199;47.526;8.538;2023-05-14T01:44:26;14.60;;;7.57;;
73023;SDS011;61199;47.526;8.538;2023-05-14T01:46:52;10.30;;;7.97;;
73023;SDS011;61199;47.526;8.538;2023-05-14T01:49:19;13.23;;;7.97;;
73023;SDS011;61199;47.526;8.538;2023-05-14T01:51:45;8.97;;;7.50;;
73023;SDS011;61199;47.526;8.538;2023-05-14T01:54:12;10.37;;;7.80;;
73023;SDS011;61199;47.526;8.538;2023-05-14T01:56:38;12.93;;;7.30;;
73023;SDS011;61199;47.526;8.538;2023-05-14T01:59:04;12.80;;;8.30;;
73023;SDS011;61199;47.526;8.538;2023-05-14T02:01:31;11.03;;;8.50;;
73023;SDS011;61199;47.526;8.538;2023-05-14T02:03:58;13.33;;;8.07;;
73023;SDS011;61199;47.526;8.538;2023-05-14T02:06:26;11.27;;;8.70;;
73023;SDS011;61199;47.526;8.538;2023-05-14T02:08:52;10.93;;;8.77;;
73023;SDS011;61199;47.526;8.538;2023-05-14T02:11:19;12.23;;;8.43;;
73023;SDS011;61199;47.526;8.538;2023-05-14T02:13:45;13.57;;;8.80;;
73023;SDS011;61199;47.526;8.538;2023-05-14T02:16:11;13.00;;;8.87;;
73023;SDS011;61199;47.526;8.538;2023-05-14T02:18:38;11.00;;;8.40;;
73023;SDS011;61199;47.526;8.538;2023-05-14T02:21:04;13.90;;;9.23;;
73023;SDS011;61199;47.526;8.538;2023-05-14T02:23:31;15.20;;;9.03;;
73023;SDS011;61199;47.526;8.538;2023-05-14T02:26:07;18.10;;;8.97;;
73023;SDS011;61199;47.526;8.538;2023-05-14T02:28:34;12.83;;;8.13;;
73023;SDS011;61199;47.526;8.538;2023-05-14T02:31:01;10.87;;;8.70;;
73023;SDS011;61199;47.526;8.538;2023-05-14T02:33:27;10.03;;;8.27;;
73023;SDS011;61199;47.526;8.538;2023-05-14T02:35:54;10.83;;;8.53;;
73023;SDS011;61199;47.526;8.538;2023-05-14T02:38:21;13.23;;;9.50;;
73023;SDS011;61199;47.526;8.538;2023-05-14T02:40:48;13.03;;;9.10;;
73023;SDS011;61199;47.526;8.538;2023-05-14T02:43:14;12.17;;;8.60;;
73023;SDS011;61199;47.526;8.538;2023-05-14T02:45:41;12.47;;;8.30;;
73023;SDS011;61199;47.526;8.538;2023-05-14T02:48:07;13.30;;;8.40;;
73023;SDS011;61199;47.526;8.538;2023-05-14T02:50:34;9.70;;;8.50;;
73023;SDS011;61199;47.526;8.538;2023-05-14T02:53:00;11.50;;;8.20;;
73023;SDS011;61199;47.526;8.538;2023-05-14T02:55:27;10.57;;;7.90;;
73023;SDS011;61199;47.526;8.538;2023-05-14T02:57:53;15.03;;;8.90;;
73023;SDS011;61199;47.526;8.538;2023-05-14T03:00:19;12.33;;;8.80;;
73023;SDS011;61199;47.526;8.538;2023-05-14T03:02:47;12.57;;;8.50;;
73023;SDS011;61199;47.526;8.538;2023-05-14T03:05:14;12.53;;;8.40;;
73023;SDS011;61199;47.526;8.538;2023-05-14T03:07:40;15.83;;;8.83;;
73023;SDS011;61199;47.526;8.538;2023-05-14T03:10:07;11.23;;;8.70;;
73023;SDS011;61199;47.526;8.538;2023-05-14T03:12:33;13.47;;;9.00;;
73023;SDS011;61199;47.526;8.538;2023-05-14T03:15:00;12.20;;;9.10;;
73023;SDS011;61199;47.526;8.538;2023-05-14T03:17:26;14.63;;;8.43;;
73023;SDS011;61199;47.526;8.538;2023-05-14T03:19:53;10.60;;;8.10;;
73023;SDS011;61199;47.526;8.538;2023-05-14T03:22:19;12.93;;;9.17;;
73023;SDS011;61199;47.526;8.538;2023-05-14T03:24:46;11.00;;;8.03;;
73023;SDS011;61199;47.526;8.538;2023-05-14T03:27:12;9.77;;;7.70;;
73023;SDS011;61199;47.526;8.538;2023-05-14T03:29:38;10.37;;;7.80;;
73023;SDS011;61199;47.526;8.538;2023-05-14T03:32:05;13.13;;;8.90;;
73023;SDS011;61199;47.526;8.538;2023-05-14T03:34:31;13.40;;;8.57;;
73023;SDS011;61199;47.526;8.538;2023-05-14T03:36:58;12.90;;;8.60;;
73023;SDS011;61199;47.526;8.538;2023-05-14T03:39:24;10.97;;;8.23;;
73023;SDS011;61199;47.526;8.538;2023-05-14T03:41:50;11.40;;;8.67;;
73023;SDS011;61199;47.526;8.538;2023-05-14T03:44:17;13.80;;;8.97;;
73023;SDS011;61199;47.526;8.538;2023-05-14T03:46:43;12.00;;;8.77;;
73023;SDS011;61199;47.526;8.538;2023-05-14T03:49:10;12.10;;;8.50;;
73023;SDS011;61199;47.526;8.538;2023-05-14T03:51:36;12.30;;;8.17;;
73023;SDS011;61199;47.526;8.538;2023-05-14T03:54:03;12.23;;;7.43;;
73023;SDS011;61199;47.526;8.538;2023-05-14T03:56:29;9.93;;;7.90;;
73023;SDS011;61199;47.526;8.538;2023-05-14T03:58:55;12.37;;;8.87;;
73023;SDS011;61199;47.526;8.538;2023-05-14T04:01:22;15.37;;;8.90;;
73023;SDS011;61199;47.526;8.538;2023-05-14T04:03:48;13.00;;;8.47;;
73023;SDS011;61199;47.526;8.538;2023-05-14T04:06:15;11.30;;;8.00;;
73023;SDS011;61199;47.526;8.538;2023-05-14T04:08:41;9.63;;;7.73;;
73023;SDS011;61199;47.526;8.538;2023-05-14T04:11:08;11.77;;;9.00;;
73023;SDS011;61199;47.526;8.538;2023-05-14T04:13:34;11.27;;;8.13;;
73023;SDS011;61199;47.526;8.538;2023-05-14T04:16:00;13.20;;;8.53;;
73023;SDS011;61199;47.526;8.538;2023-05-14T04:18:27;11.30;;;7.80;;
73023;SDS011;61199;47.526;8.538;2023-05-14T04:20:53;15.23;;;8.43;;
73023;SDS011;61199;47.526;8.538;2023-05-14T04:23:20;12.30;;;8.90;;
73023;SDS011;61199;47.526;8.538;2023-05-14T04:25:46;12.23;;;8.00;;
73023;SDS011;61199;47.526;8.538;2023-05-14T04:28:12;11.70;;;8.53;;
73023;SDS011;61199;47.526;8.538;2023-05-14T04:30:39;9.90;;;7.70;;
73023;SDS011;61199;47.526;8.538;2023-05-14T04:33:06;12.67;;;8.83;;
73023;SDS011;61199;47.526;8.538;2023-05-14T04:35:32;16.10;;;9.10;;
73023;SDS011;61199;47.526;8.538;2023-05-14T04:37:59;10.80;;;8.77;;
73023;SDS011;61199;47.526;8.538;2023-05-14T04:40:25;9.77;;;7.87;;
73023;SDS011;61199;47.526;8.538;2023-05-14T04:42:52;19.43;;;8.80;;
73023;SDS011;61199;47.526;8.538;2023-05-14T04:45:19;9.57;;;7.87;;
73023;SDS011;61199;47.526;8.538;2023-05-14T04:47:45;10.60;;;8.97;;
73023;SDS011;61199;47.526;8.538;2023-05-14T04:50:12;11.30;;;8.50;;
73023;SDS011;61199;47.526;8.538;2023-05-14T04:52:38;12.30;;;8.30;;
73023;SDS011;61199;47.526;8.538;2023-05-14T04:55:05;12.80;;;9.07;;
73023;SDS011;61199;47.526;8.538;2023-05-14T04:57:32;12.40;;;7.77;;
73023;SDS011;61199;47.526;8.538;2023-05-14T04:59:58;12.23;;;8.63;;
73023;SDS011;61199;47.526;8.538;2023-05-14T05:02:25;14.83;;;8.83;;
73023;SDS011;61199;47.526;8.538;2023-05-14T05:04:51;13.00;;;8.80;;
73023;SDS011;61199;47.526;8.538;2023-05-14T05:07:17;12.03;;;9.03;;
73023;SDS011;61199;47.526;8.538;2023-05-14T05:09:44;12.57;;;8.57;;
73023;SDS011;61199;47.526;8.538;2023-05-14T05:12:10;18.30;;;9.40;;
73023;SDS011;61199;47.526;8.538;2023-05-14T05:14:37;14.27;;;9.30;;
73023;SDS011;61199;47.526;8.538;2023-05-14T05:17:03;11.60;;;8.60;;
73023;SDS011;61199;47.526;8.538;2023-05-14T05:19:30;11.70;;;9.20;;
73023;SDS011;61199;47.526;8.538;2023-05-14T05:22:08;14.60;;;9.23;;
73023;SDS011;61199;47.526;8.538;2023-05-14T05:24:35;18.23;;;9.87;;
73023;SDS011;61199;47.526;8.538;2023-05-14T05:27:01;11.37;;;9.13;;
73023;SDS011;61199;47.526;8.538;2023-05-14T05:29:28;11.90;;;9.30;;
73023;SDS011;61199;47.526;8.538;2023-05-14T05:31:55;12.40;;;9.20;;
73023;SDS011;61199;47.526;8.538;2023-05-14T05:34:21;12.83;;;9.77;;
73023;SDS011;61199;47.526;8.538;2023-05-14T05:36:47;10.67;;;8.80;;
73023;SDS011;61199;47.526;8.538;2023-05-14T05:39:14;11.40;;;9.20;;
73023;SDS011;61199;47.526;8.538;2023-05-14T05:41:41;13.53;;;9.53;;
73023;SDS011;61199;47.526;8.538;2023-05-14T05:44:08;15.27;;;9.47;;
73023;SDS011;61199;47.526;8.538;2023-05-14T05:46:34;12.80;;;9.87;;
73023;SDS011;61199;47.526;8.538;2023-05-14T05:49:01;14.83;;;9.83;;
73023;SDS011;61199;47.526;8.538;2023-05-14T05:51:27;17.70;;;9.73;;
73023;SDS011;61199;47.526;8.538;2023-05-14T05:53:54;13.10;;;9.57;;
73023;SDS011;61199;47.526;8.538;2023-05-14T05:56:20;12.87;;;9.83;;
73023;SDS011;61199;47.526;8.538;2023-05-14T05:58:47;13.80;;;10.10;;
73023;SDS011;61199;47.526;8.538;2023-05-14T06:01:13;15.97;;;10.40;;
73023;SDS011;61199;47.526;8.538;2023-05-14T06:03:40;19.50;;;11.77;;
73023;SDS011;61199;47.526;8.538;2023-05-14T06:06:06;13.20;;;10.10;;
73023;SDS011;61199;47.526;8.538;2023-05-14T06:08:33;13.40;;;10.57;;
73023;SDS011;61199;47.526;8.538;2023-05-14T06:10:59;14.20;;;9.67;;
73023;SDS011;61199;47.526;8.538;2023-05-14T06:13:25;16.07;;;11.07;;
73023;SDS011;61199;47.526;8.538;2023-05-14T06:15:52;14.57;;;11.40;;
73023;SDS011;61199;47.526;8.538;2023-05-14T06:18:18;15.77;;;10.90;;
73023;SDS011;61199;47.526;8.538;2023-05-14T06:20:44;15.23;;;11.20;;
73023;SDS011;61199;47.526;8.538;2023-05-14T06:23:11;19.43;;;11.13;;
73023;SDS011;61199;47.526;8.538;2023-05-14T06:25:37;14.50;;;10.37;;
73023;SDS011;61199;47.526;8.538;2023-05-14T06:28:04;16.93;;;11.57;;
73023;SDS011;61199;47.526;8.538;2023-05-14T06:30:30;13.90;;;9.87;;
73023;SDS011;61199;47.526;8.538;2023-05-14T06:32:56;15.37;;;11.60;;
73023;SDS011;61199;47.526;8.538;2023-05-14T06:35:23;25.53;;;10.70;;
73023;SDS011;61199;47.526;8.538;2023-05-14T06:37:49;18.03;;;11.30;;
73023;SDS011;61199;47.526;8.538;2023-05-14T06:40:16;18.50;;;12.53;;
73023;SDS011;61199;47.526;8.538;2023-05-14T06:42:42;13.60;;;10.40;;
73023;SDS011;61199;47.526;8.538;2023-05-14T06:45:09;17.63;;;11.50;;
73023;SDS011;61199;47.526;8.538;2023-05-14T06:47:35;15.40;;;11.47;;
73023;SDS011;61199;47.526;8.538;2023-05-14T06:50:02;17.70;;;10.10;;
73023;SDS011;61199;47.526;8.538;2023-05-14T06:52:28;15.97;;;11.40;;
73023;SDS011;61199;47.526;8.538;2023-05-14T06:54:55;17.77;;;11.90;;
73023;SDS011;61199;47.526;8.538;2023-05-14T06:57:21;21.60;;;12.60;;
73023;SDS011;61199;47.526;8.538;2023-05-14T06:59:47;17.30;;;11.53;;
73023;SDS011;61199;47.526;8.538;2023-05-14T07:02:14;16.90;;;12.40;;
73023;SDS011;61199;47.526;8.538;2023-05-14T07:04:40;17.13;;;12.20;;
73023;SDS011;61199;47.526;8.538;2023-05-14T07:07:07;18.60;;;12.63;;
73023;SDS011;61199;47.526;8.538;2023-05-14T07:09:35;18.30;;;11.40;;
73023;SDS011;61199;47.526;8.538;2023-05-14T07:12:01;18.30;;;11.90;;
73023;SDS011;61199;47.526;8.538;2023-05-14T07:14:28;17.10;;;12.20;;
73023;SDS011;61199;47.526;8.538;2023-05-14T07:16:55;17.63;;;11.13;;
73023;SDS011;61199;47.526;8.538;2023-05-14T07:19:22;19.80;;;12.53;;
73023;SDS011;61199;47.526;8.538;2023-05-14T07:21:48;18.07;;;12.90;;
73023;SDS011;61199;47.526;8.538;2023-05-14T07:24:15;20.23;;;11.33;;
73023;SDS011;61199;47.526;8.538;2023-05-14T07:26:41;20.97;;;13.10;;
73023;SDS011;61199;47.526;8.538;2023-05-14T07:29:07;17.37;;;12.40;;
73023;SDS011;61199;47.526;8.538;2023-05-14T07:31:34;18.53;;;12.97;;
73023;SDS011;61199;47.526;8.538;2023-05-14T07:34:00;17.90;;;12.43;;
73023;SDS011;61199;47.526;8.538;2023-05-14T07:36:26;16.37;;;11.63;;
73023;SDS011;61199;47.526;8.538;2023-05-14T07:38:53;18.67;;;13.07;;
73023;SDS011;61199;47.526;8.538;2023-05-14T07:41:19;16.97;;;11.93;;
73023;SDS011;61199;47.526;8.538;2023-05-14T07:43:46;19.13;;;12.53;;
73023;SDS011;61199;47.526;8.538;2023-05-14T07:46:13;17.43;;;12.67;;
73023;SDS011;61199;47.526;8.538;2023-05-14T07:48:39;23.90;;;14.70;;
73023;SDS011;61199;47.526;8.538;2023-05-14T07:51:06;19.23;;;13.13;;
73023;SDS011;61199;47.526;8.538;2023-05-14T07:53:32;17.63;;;13.20;;
73023;SDS011;61199;47.526;8.538;2023-05-14T07:55:58;22.70;;;14.70;;
73023;SDS011;61199;47.526;8.538;2023-05-14T07:58:25;20.37;;;14.30;;
73023;SDS011;61199;47.526;8.538;2023-05-14T08:00:53;21.60;;;15.40;;
73023;SDS011;61199;47.526;8.538;2023-05-14T08:03:19;21.70;;;15.30;;
73023;SDS011;61199;47.526;8.538;2023-05-14T08:05:46;22.30;;;14.87;;
73023;SDS011;61199;47.526;8.538;2023-05-14T08:08:12;24.70;;;14.57;;
73023;SDS011;61199;47.526;8.538;2023-05-14T08:10:39;22.07;;;14.53;;
73023;SDS011;61199;47.526;8.538;2023-05-14T08:13:05;18.50;;;12.30;;
73023;SDS011;61199;47.526;8.538;2023-05-14T08:15:31;18.03;;;12.30;;
73023;SDS011;61199;47.526;8.538;2023-05-14T08:17:58;16.80;;;11.97;;
73023;SDS011;61199;47.526;8.538;2023-05-14T08:20:29;20.60;;;13.17;;
73023;SDS011;61199;47.526;8.538;2023-05-14T08:22:56;16.20;;;12.00;;
73023;SDS011;61199;47.526;8.538;2023-05-14T08:25:23;16.77;;;10.73;;
73023;SDS011;61199;47.526;8.538;2023-05-14T08:27:50;16.80;;;12.40;;
73023;SDS011;61199;47.526;8.538;2023-05-14T08:30:16;15.00;;;11.33;;
73023;SDS011;61199;47.526;8.538;2023-05-14T08:32:43;17.60;;;11.30;;
73023;SDS011;61199;47.526;8.538;2023-05-14T08:35:09;16.90;;;11.80;;
73023;SDS011;61199;47.526;8.538;2023-05-14T08:37:36;16.90;;;11.10;;
73023;SDS011;61199;47.526;8.538;2023-05-14T08:40:02;14.90;;;9.90;;
73023;SDS011;61199;47.526;8.538;2023-05-14T08:42:29;21.13;;;10.00;;
73023;SDS011;61199;47.526;8.538;2023-05-14T08:45:00;15.03;;;9.63;;
73023;SDS011;61199;47.526;8.538;2023-05-14T08:47:27;13.30;;;10.00;;
73023;SDS011;61199;47.526;8.538;2023-05-14T08:50:01;13.30;;;8.77;;
73023;SDS011;61199;47.526;8.538;2023-05-14T08:52:29;11.10;;;8.57;;
73023;SDS011;61199;47.526;8.538;2023-05-14T08:54:59;16.50;;;10.00;;
73023;SDS011;61199;47.526;8.538;2023-05-14T08:57:29;16.97;;;9.40;;
73023;SDS011;61199;47.526;8.538;2023-05-14T08:59:57;13.53;;;10.27;;
73023;SDS011;61199;47.526;8.538;2023-05-14T09:02:24;17.63;;;8.60;;
73023;SDS011;61199;47.526;8.538;2023-05-14T09:04:59;12.80;;;8.20;;
73023;SDS011;61199;47.526;8.538;2023-05-14T09:07:27;14.50;;;8.40;;
73023;SDS011;61199;47.526;8.538;2023-05-14T09:09:54;14.93;;;9.53;;
73023;SDS011;61199;47.526;8.538;2023-05-14T09:12:20;13.67;;;9.13;;
73023;SDS011;61199;47.526;8.538;2023-05-14T09:14:48;12.93;;;8.73;;
73023;SDS011;61199;47.526;8.538;2023-05-14T09:17:15;12.90;;;9.37;;
73023;SDS011;61199;47.526;8.538;2023-05-14T09:19:42;13.40;;;8.73;;
73023;SDS011;61199;47.526;8.538;2023-05-14T09:22:12;10.90;;;8.00;;
73023;SDS011;61199;47.526;8.538;2023-05-14T09:24:40;12.00;;;8.67;;
73023;SDS011;61199;47.526;8.538;2023-05-14T09:27:08;12.47;;;8.57;;
73023;SDS011;61199;47.526;8.538;2023-05-14T09:29:35;12.80;;;9.20;;
73023;SDS011;61199;47.526;8.538;2023-05-14T09:32:02;13.87;;;9.67;;
73023;SDS011;61199;47.526;8.538;2023-05-14T09:34:31;11.63;;;8.00;;
73023;SDS011;61199;47.526;8.538;2023-05-14T09:37:05;11.20;;;7.57;;
73023;SDS011;61199;47.526;8.538;2023-05-14T09:39:33;11.20;;;7.80;;
73023;SDS011;61199;47.526;8.538;2023-05-14T09:42:03;11.67;;;7.60;;
73023;SDS011;61199;47.526;8.538;2023-05-14T09:44:30;15.73;;;9.97;;
73023;SDS011;61199;47.526;8.538;2023-05-14T09:46:57;10.97;;;7.40;;
73023;SDS011;61199;47.526;8.538;2023-05-14T09:49:23;11.67;;;7.40;;
73023;SDS011;61199;47.526;8.538;2023-05-14T09:51:49;10.50;;;7.17;;
73023;SDS011;61199;47.526;8.538;2023-05-14T09:54:16;9.00;;;6.77;;
73023;SDS011;61199;47.526;8.538;2023-05-14T09:56:43;9.07;;;6.80;;
73023;SDS011;61199;47.526;8.538;2023-05-14T09:59:09;11.13;;;7.80;;
73023;SDS011;61199;47.526;8.538;2023-05-14T10:01:36;9.90;;;6.90;;
73023;SDS011;61199;47.526;8.538;2023-05-14T10:04:05;10.10;;;7.43;;
73023;SDS011;61199;47.526;8.538;2023-05-14T10:06:35;13.60;;;7.57;;
73023;SDS011;61199;47.526;8.538;2023-05-14T10:09:03;12.20;;;8.03;;
73023;SDS011;61199;47.526;8.538;2023-05-14T10:11:36;11.67;;;7.77;;
73023;SDS011;61199;47.526;8.538;2023-05-14T10:14:07;15.70;;;7.43;;
73023;SDS011;61199;47.526;8.538;2023-05-14T10:16:39;12.03;;;7.63;;
73023;SDS011;61199;47.526;8.538;2023-05-14T10:19:09;11.33;;;6.57;;
73023;SDS011;61199;47.526;8.538;2023-05-14T10:21:37;10.00;;;6.70;;
73023;SDS011;61199;47.526;8.538;2023-05-14T10:24:06;8.57;;;6.17;;
73023;SDS011;61199;47.526;8.538;2023-05-14T10:26:34;10.10;;;7.20;;
73023;SDS011;61199;47.526;8.538;2023-05-14T10:29:05;8.63;;;6.57;;
73023;SDS011;61199;47.526;8.538;2023-05-14T10:37:10;13.20;;;9.40;;
73023;SDS011;61199;47.526;8.538;2023-05-14T10:39:50;15.90;;;9.50;;
73023;SDS011;61199;47.526;8.538;2023-05-14T10:42:34;14.37;;;9.50;;
73023;SDS011;61199;47.526;8.538;2023-05-14T10:45:08;17.13;;;10.63;;
73023;SDS011;61199;47.526;8.538;2023-05-14T10:47:37;14.77;;;9.73;;
73023;SDS011;61199;47.526;8.538;2023-05-14T10:50:06;15.33;;;9.80;;
73023;SDS011;61199;47.526;8.538;2023-05-14T10:52:34;16.63;;;10.30;;
73023;SDS011;61199;47.526;8.538;2023-05-14T10:55:04;13.57;;;9.23;;
73023;SDS011;61199;47.526;8.538;2023-05-14T10:57:36;16.47;;;9.37;;
73023;SDS011;61199;47.526;8.538;2023-05-14T11:00:03;14.70;;;9.30;;
73023;SDS011;61199;47.526;8.538;2023-05-14T11:02:37;14.93;;;9.97;;
73023;SDS011;61199;47.526;8.538;2023-05-14T11:05:05;18.53;;;10.00;;
73023;SDS011;61199;47.526;8.538;2023-05-14T11:07:37;16.10;;;9.97;;
73023;SDS011;61199;47.526;8.538;2023-05-14T11:10:14;15.53;;;9.77;;
73023;SDS011;61199;47.526;8.538;2023-05-14T11:12:43;12.77;;;9.33;;
73023;SDS011;61199;47.526;8.538;2023-05-14T11:15:15;13.10;;;9.50;;
73023;SDS011;61199;47.526;8.538;2023-05-14T11:17:46;14.33;;;8.03;;
73023;SDS011;61199;47.526;8.538;2023-05-14T11:20:13;12.00;;;8.50;;
73023;SDS011;61199;47.526;8.538;2023-05-14T11:22:40;13.93;;;9.07;;
73023;SDS011;61199;47.526;8.538;2023-05-14T11:25:08;12.30;;;8.10;;
73023;SDS011;61199;47.526;8.538;2023-05-14T11:27:36;10.80;;;7.67;;
73023;SDS011;61199;47.526;8.538;2023-05-14T11:30:04;15.00;;;8.97;;
73023;SDS011;61199;47.526;8.538;2023-05-14T11:32:36;12.83;;;8.80;;
73023;SDS011;61199;47.526;8.538;2023-05-14T11:35:03;14.87;;;10.37;;
73023;SDS011;61199;47.526;8.538;2023-05-14T11:37:30;13.87;;;10.00;;
73023;SDS011;61199;47.526;8.538;2023-05-14T11:39:58;15.47;;;9.40;;
73023;SDS011;61199;47.526;8.538;2023-05-14T11:42:25;19.43;;;8.60;;
73023;SDS011;61199;47.526;8.538;2023-05-14T11:44:52;11.80;;;5.87;;
73023;SDS011;61199;47.526;8.538;2023-05-14T11:47:19;7.97;;;5.30;;
73023;SDS011;61199;47.526;8.538;2023-05-14T11:49:47;7.00;;;5.17;;
73023;SDS011;61199;47.526;8.538;2023-05-14T11:52:14;8.23;;;4.50;;
73023;SDS011;61199;47.526;8.538;2023-05-14T11:54:44;8.27;;;5.33;;
73023;SDS011;61199;47.526;8.538;2023-05-14T11:57:14;7.60;;;4.23;;
73023;SDS011;61199;47.526;8.538;2023-05-14T11:59:43;6.53;;;4.20;;
73023;SDS011;61199;47.526;8.538;2023-05-14T12:02:11;5.63;;;4.67;;
73023;SDS011;61199;47.526;8.538;2023-05-14T12:04:39;4.50;;;3.47;;
73023;SDS011;61199;47.526;8.538;2023-05-14T12:07:11;4.40;;;3.67;;
73023;SDS011;61199;47.526;8.538;2023-05-14T12:09:43;4.70;;;3.30;;
73023;SDS011;61199;47.526;8.538;2023-05-14T12:12:16;4.73;;;3.40;;
73023;SDS011;61199;47.526;8.538;2023-05-14T12:14:44;4.17;;;3.30;;
73023;SDS011;61199;47.526;8.538;2023-05-14T12:17:12;4.60;;;3.93;;
73023;SDS011;61199;47.526;8.538;2023-05-14T12:19:44;4.53;;;3.43;;
73023;SDS011;61199;47.526;8.538;2023-05-14T12:22:13;5.00;;;4.07;;
73023;SDS011;61199;47.526;8.538;2023-05-14T12:24:54;11.20;;;6.93;;
73023;SDS011;61199;47.526;8.538;2023-05-14T12:27:25;10.93;;;5.30;;
73023;SDS011;61199;47.526;8.538;2023-05-14T12:29:59;6.17;;;4.57;;
73023;SDS011;61199;47.526;8.538;2023-05-14T12:32:45;4.50;;;3.10;;
73023;SDS011;61199;47.526;8.538;2023-05-14T12:35:12;12.67;;;3.47;;
73023;SDS011;61199;47.526;8.538;2023-05-14T12:37:38;5.93;;;3.87;;
73023;SDS011;61199;47.526;8.538;2023-05-14T12:40:05;3.37;;;2.83;;
73023;SDS011;61199;47.526;8.538;2023-05-14T12:42:34;4.70;;;3.30;;
73023;SDS011;61199;47.526;8.538;2023-05-14T12:45:01;3.67;;;2.80;;
73023;SDS011;61199;47.526;8.538;2023-05-14T12:47:32;5.17;;;3.27;;
73023;SDS011;61199;47.526;8.538;2023-05-14T12:49:58;4.40;;;3.20;;
73023;SDS011;61199;47.526;8.538;2023-05-14T12:52:24;4.17;;;3.33;;
73023;SDS011;61199;47.526;8.538;2023-05-14T12:55:04;5.40;;;2.97;;
73023;SDS011;61199;47.526;8.538;2023-05-14T12:57:31;5.57;;;3.60;;
73023;SDS011;61199;47.526;8.538;2023-05-14T13:00:00;4.30;;;3.13;;
73023;SDS011;61199;47.526;8.538;2023-05-14T13:02:26;4.23;;;3.70;;
73023;SDS011;61199;47.526;8.538;2023-05-14T13:04:53;7.03;;;4.53;;
73023;SDS011;61199;47.526;8.538;2023-05-14T13:07:19;5.00;;;2.87;;
73023;SDS011;61199;47.526;8.538;2023-05-14T13:09:46;8.93;;;3.57;;
73023;SDS011;61199;47.526;8.538;2023-05-14T13:12:12;3.93;;;2.90;;
73023;SDS011;61199;47.526;8.538;2023-05-14T13:14:38;8.43;;;4.20;;
73023;SDS011;61199;47.526;8.538;2023-05-14T13:17:05;50.57;;;18.00;;
73023;SDS011;61199;47.526;8.538;2023-05-14T13:19:33;10.03;;;5.20;;
73023;SDS011;61199;47.526;8.538;2023-05-14T13:21:59;19.17;;;7.50;;
73023;SDS011;61199;47.526;8.538;2023-05-14T13:24:26;7.53;;;3.23;;
73023;SDS011;61199;47.526;8.538;2023-05-14T13:26:52;6.40;;;3.43;;
73023;SDS011;61199;47.526;8.538;2023-05-14T13:29:18;28.57;;;6.30;;
73023;SDS011;61199;47.526;8.538;2023-05-14T13:31:45;42.73;;;10.03;;
73023;SDS011;61199;47.526;8.538;2023-05-14T13:34:11;8.13;;;4.30;;
73023;SDS011;61199;47.526;8.538;2023-05-14T13:36:38;7.67;;;4.03;;
73023;SDS011;61199;47.526;8.538;2023-05-14T13:39:05;5.03;;;3.47;;
73023;SDS011;61199;47.526;8.538;2023-05-14T13:41:32;4.50;;;3.10;;
73023;SDS011;61199;47.526;8.538;2023-05-14T13:44:00;3.80;;;2.93;;
73023;SDS011;61199;47.526;8.538;2023-05-14T13:46:26;3.33;;;2.70;;
73023;SDS011;61199;47.526;8.538;2023-05-14T13:48:53;5.60;;;3.67;;
73023;SDS011;61199;47.526;8.538;2023-05-14T13:51:20;7.73;;;3.70;;
73023;SDS011;61199;47.526;8.538;2023-05-14T13:53:48;4.43;;;3.30;;
73023;SDS011;61199;47.526;8.538;2023-05-14T13:56:15;4.90;;;3.90;;
73023;SDS011;61199;47.526;8.538;2023-05-14T13:58:41;3.70;;;2.77;;
73023;SDS011;61199;47.526;8.538;2023-05-14T14:01:07;10.97;;;3.90;;
73023;SDS011;61199;47.526;8.538;2023-05-14T14:03:34;13.33;;;4.67;;
73023;SDS011;61199;47.526;8.538;2023-05-14T14:06:00;6.83;;;4.00;;
73023;SDS011;61199;47.526;8.538;2023-05-14T14:08:27;6.00;;;4.50;;
73023;SDS011;61199;47.526;8.538;2023-05-14T14:10:53;10.63;;;4.23;;
73023;SDS011;61199;47.526;8.538;2023-05-14T14:13:20;5.53;;;3.47;;
73023;SDS011;61199;47.526;8.538;2023-05-14T14:15:47;11.47;;;5.07;;
73023;SDS011;61199;47.526;8.538;2023-05-14T14:18:14;8.77;;;4.80;;
73023;SDS011;61199;47.526;8.538;2023-05-14T14:20:40;3.30;;;2.07;;
73023;SDS011;61199;47.526;8.538;2023-05-14T14:23:07;4.13;;;2.80;;
73023;SDS011;61199;47.526;8.538;2023-05-14T14:25:33;7.63;;;3.90;;
73023;SDS011;61199;47.526;8.538;2023-05-14T14:27:59;5.10;;;4.00;;
73023;SDS011;61199;47.526;8.538;2023-05-14T14:30:26;6.03;;;4.80;;
73023;SDS011;61199;47.526;8.538;2023-05-14T14:32:52;6.43;;;4.60;;
73023;SDS011;61199;47.526;8.538;2023-05-14T14:35:19;7.40;;;4.83;;
73023;SDS011;61199;47.526;8.538;2023-05-14T14:37:45;9.23;;;5.60;;
73023;SDS011;61199;47.526;8.538;2023-05-14T14:40:17;10.33;;;6.10;;
73023;SDS011;61199;47.526;8.538;2023-05-14T14:42:44;8.70;;;5.90;;
73023;SDS011;61199;47.526;8.538;2023-05-14T14:45:10;7.20;;;4.00;;